createdAt,value
2022-09-21T00:00:28.589Z,9.97
2022-09-21T00:03:31.218Z,3.93
2022-09-21T00:06:35.867Z,5.70
2022-09-21T00:09:38.536Z,8.37
2022-09-21T00:12:42.008Z,6.00
2022-09-21T00:15:44.634Z,4.80
2022-09-21T00:18:48.512Z,7.23
2022-09-21T00:21:55.401Z,4.60
2022-09-21T00:24:58.985Z,8.67
2022-09-21T00:28:02.173Z,5.97
2022-09-21T00:31:07.549Z,4.77
2022-09-21T00:34:10.438Z,10.00
2022-09-21T00:37:14.460Z,4.87
2022-09-21T00:40:17.392Z,5.73
2022-09-21T00:43:20.620Z,9.90
2022-09-21T00:46:28.817Z,6.60
2022-09-21T00:49:34.525Z,5.17
2022-09-21T00:52:43.011Z,6.10
2022-09-21T00:55:51.873Z,8.43
2022-09-21T00:58:55.731Z,12.23
2022-09-21T01:02:00.043Z,22.10
2022-09-21T01:05:04.415Z,52.03
2022-09-21T01:08:12.338Z,34.33
2022-09-21T01:11:28.693Z,23.23
2022-09-21T01:14:58.083Z,26.77
2022-09-21T01:18:10.799Z,18.37
2022-09-21T01:21:25.217Z,15.63
2022-09-21T01:24:51.182Z,25.87
2022-09-21T01:28:05.319Z,12.83
2022-09-21T01:31:15.292Z,13.33
2022-09-21T01:34:26.818Z,10.63
2022-09-21T01:37:36.480Z,12.43
2022-09-21T01:40:42.395Z,4.67
2022-09-21T01:43:50.555Z,6.83
2022-09-21T01:46:56.663Z,9.83
2022-09-21T01:50:03.506Z,12.40
2022-09-21T01:53:11.275Z,13.83
2022-09-21T01:56:19.788Z,8.73
2022-09-21T01:59:27.776Z,11.93
2022-09-21T02:02:38.474Z,11.20
2022-09-21T02:05:42.980Z,10.27
2022-09-21T02:08:46.773Z,5.47
2022-09-21T02:11:49.733Z,7.93
2022-09-21T02:14:55.600Z,7.80
2022-09-21T02:18:05.692Z,6.03
2022-09-21T02:21:17.387Z,8.03
2022-09-21T02:24:31.974Z,5.97
2022-09-21T02:27:44.207Z,6.10
2022-09-21T02:30:55.417Z,6.83
2022-09-21T02:34:04.599Z,13.87
2022-09-21T02:37:12.852Z,10.03
2022-09-21T02:40:26.648Z,5.80
2022-09-21T02:43:35.241Z,5.30
2022-09-21T02:46:42.033Z,5.87
2022-09-21T02:49:53.607Z,4.77
2022-09-21T02:52:57.399Z,7.20
2022-09-21T02:56:03.902Z,4.93
2022-09-21T02:59:08.033Z,9.43
2022-09-21T03:02:12.473Z,7.33
2022-09-21T03:05:16.938Z,5.17
2022-09-21T03:08:20.242Z,5.23
2022-09-21T03:11:22.947Z,6.23
2022-09-21T03:14:26.142Z,7.63
2022-09-21T03:17:28.806Z,5.10
2022-09-21T03:20:33.464Z,6.43
2022-09-21T03:23:36.464Z,7.50
2022-09-21T03:26:39.520Z,5.73
2022-09-21T03:29:42.515Z,4.53
2022-09-21T03:32:45.347Z,4.10
2022-09-21T03:35:50.706Z,6.93
2022-09-21T03:38:53.363Z,6.83
2022-09-21T03:41:57.250Z,4.87
2022-09-21T03:45:00.351Z,6.67
2022-09-21T03:48:03.266Z,4.63
2022-09-21T03:51:07.382Z,5.50
2022-09-21T03:54:10.593Z,4.37
2022-09-21T03:57:13.563Z,3.80
2022-09-21T04:00:16.816Z,4.57
2022-09-21T04:03:20.807Z,7.50
2022-09-21T04:06:25.104Z,4.47
2022-09-21T04:09:27.971Z,5.80
2022-09-21T04:12:31.282Z,4.40
2022-09-21T04:15:34.094Z,5.77
2022-09-21T04:18:37.458Z,6.13
2022-09-21T04:21:41.845Z,6.90
2022-09-21T04:24:44.822Z,4.57
2022-09-21T04:27:47.896Z,3.73
2022-09-21T04:30:54.296Z,5.30
2022-09-21T04:33:58.758Z,4.13
2022-09-21T04:37:02.862Z,4.20
2022-09-21T04:40:07.153Z,5.70
2022-09-21T04:43:10.123Z,4.37
2022-09-21T04:46:15.035Z,3.97
2022-09-21T04:49:17.697Z,8.87
2022-09-21T04:52:22.001Z,3.93
2022-09-21T04:55:25.015Z,12.47
2022-09-21T04:58:27.837Z,4.97
2022-09-21T05:01:30.554Z,6.00
2022-09-21T05:04:33.505Z,4.90
2022-09-21T05:07:37.467Z,5.67
2022-09-21T05:10:39.365Z,4.27
2022-09-21T05:13:42.056Z,6.30
2022-09-21T05:16:45.102Z,3.87
2022-09-21T05:19:47.903Z,7.90
2022-09-21T05:22:52.176Z,5.80
2022-09-21T05:25:54.891Z,3.50
2022-09-21T05:28:58.337Z,5.83
2022-09-21T05:32:08.771Z,3.47
2022-09-21T05:35:19.406Z,5.57
2022-09-21T05:38:24.386Z,4.50
2022-09-21T05:41:27.621Z,3.63
2022-09-21T05:44:30.815Z,6.17
2022-09-21T05:47:40.222Z,5.73
2022-09-21T05:50:50.863Z,3.63
2022-09-21T05:54:02.746Z,6.87
2022-09-21T05:57:12.511Z,3.30
2022-09-21T06:00:19.239Z,2.83
2022-09-21T06:03:29.445Z,2.37
2022-09-21T06:06:32.370Z,3.97
2022-09-21T06:09:40.037Z,2.80
2022-09-21T06:12:45.725Z,4.67
2022-09-21T06:15:48.615Z,4.37
2022-09-21T06:18:51.294Z,3.07
2022-09-21T06:21:53.915Z,14.13
2022-09-21T06:24:57.986Z,3.20
2022-09-21T06:28:04.374Z,3.00
2022-09-21T06:31:07.055Z,3.17
2022-09-21T06:34:10.048Z,4.80
2022-09-21T06:37:12.768Z,4.00
2022-09-21T06:40:17.616Z,7.23
2022-09-21T06:43:20.799Z,5.43
2022-09-21T06:46:23.644Z,5.43
2022-09-21T06:49:28.912Z,6.47
2022-09-21T06:52:31.539Z,6.80
2022-09-21T06:55:35.861Z,6.03
2022-09-21T06:58:39.082Z,11.37
2022-09-21T07:01:41.794Z,8.77
2022-09-21T07:04:44.906Z,10.40
2022-09-21T07:07:47.667Z,8.80
2022-09-21T07:10:51.839Z,8.43
2022-09-21T07:13:55.292Z,14.30
2022-09-21T07:16:57.975Z,10.50
2022-09-21T07:20:01.941Z,3.73
2022-09-21T07:23:11.342Z,4.27
2022-09-21T07:26:16.278Z,5.07
2022-09-21T07:29:18.955Z,6.57
2022-09-21T07:32:22.301Z,7.50
2022-09-21T07:35:24.977Z,6.70
2022-09-21T07:38:28.068Z,8.50
2022-09-21T07:41:32.254Z,5.67
2022-09-21T07:44:35.310Z,5.50
2022-09-21T07:47:37.945Z,4.33
2022-09-21T07:50:40.777Z,3.83
2022-09-21T07:53:45.466Z,4.83
2022-09-21T07:57:09.480Z,6.80
2022-09-21T08:00:12.474Z,7.23
2022-09-21T08:03:15.122Z,7.23
2022-09-21T08:06:17.968Z,2.27
2022-09-21T08:09:20.717Z,5.40
2022-09-21T08:12:24.884Z,6.73
2022-09-21T08:15:47.684Z,9.87
2022-09-21T08:18:51.724Z,10.43
2022-09-21T08:21:57.585Z,8.10
2022-09-21T08:25:01.118Z,7.20
2022-09-21T08:28:09.606Z,2.73
2022-09-21T08:31:12.577Z,6.40
2022-09-21T08:34:16.257Z,9.17
2022-09-21T08:37:19.448Z,2.10
2022-09-21T08:40:22.436Z,3.03
2022-09-21T08:43:32.869Z,3.37
2022-09-21T08:46:38.088Z,5.97
2022-09-21T08:49:44.155Z,3.63
2022-09-21T08:52:47.952Z,3.97
2022-09-21T08:55:50.710Z,6.33
2022-09-21T08:58:54.754Z,3.50
2022-09-21T09:02:05.162Z,7.60
2022-09-21T09:05:23.881Z,6.63
2022-09-21T09:09:00.328Z,8.50
2022-09-21T09:12:23.472Z,5.67
2022-09-21T09:15:49.937Z,5.93
2022-09-21T09:18:54.478Z,5.80
2022-09-21T09:21:57.539Z,4.30
2022-09-21T09:25:05.345Z,3.27
2022-09-21T09:28:21.480Z,2.20
2022-09-21T09:31:30.549Z,1.50
2022-09-21T09:34:37.105Z,1.90
2022-09-21T09:37:42.276Z,2.20
2022-09-21T09:41:02.635Z,4.30
2022-09-21T09:44:17.672Z,2.33
2022-09-21T09:47:32.314Z,2.00
2022-09-21T09:50:37.314Z,3.50
2022-09-21T09:53:40.543Z,2.20
2022-09-21T09:56:43.591Z,2.00
2022-09-21T09:59:54.376Z,2.17
2022-09-21T10:03:01.109Z,1.73
2022-09-21T10:06:03.801Z,4.00
2022-09-21T10:09:21.424Z,8.27
2022-09-21T10:12:27.495Z,3.47
2022-09-21T10:15:30.810Z,2.13
2022-09-21T10:18:39.581Z,2.10
2022-09-21T10:21:47.594Z,5.03
2022-09-21T10:24:54.722Z,2.50
2022-09-21T10:27:57.900Z,1.63
2022-09-21T10:31:23.747Z,2.93
2022-09-21T10:34:30.175Z,2.30
2022-09-21T10:37:35.010Z,2.70
2022-09-21T10:40:39.032Z,3.30
2022-09-21T10:43:44.604Z,2.43
2022-09-21T10:46:48.683Z,1.77
2022-09-21T10:49:55.982Z,1.80
2022-09-21T10:53:12.225Z,2.93
2022-09-21T10:56:18.760Z,5.30
2022-09-21T10:59:25.178Z,3.13
2022-09-21T11:02:36.700Z,1.43
2022-09-21T11:05:45.459Z,3.83
2022-09-21T11:08:56.195Z,3.87
2022-09-21T11:12:05.261Z,1.53
2022-09-21T11:15:18.149Z,3.43
2022-09-21T11:18:25.964Z,6.57
2022-09-21T11:21:37.450Z,7.40
2022-09-21T11:24:50.209Z,3.07
2022-09-21T11:27:57.180Z,16.63
2022-09-21T11:31:21.070Z,17.73
2022-09-21T11:34:39.567Z,12.40
2022-09-21T11:37:52.375Z,13.10
2022-09-21T11:41:14.725Z,8.37
2022-09-21T11:44:29.716Z,6.20
2022-09-21T11:47:47.874Z,8.70
2022-09-21T11:51:09.762Z,5.77
2022-09-21T11:54:37.774Z,1.67
2022-09-21T11:57:51.604Z,1.63
2022-09-21T12:01:12.071Z,1.47
2022-09-21T12:04:38.252Z,1.93
2022-09-21T12:07:58.234Z,1.70
2022-09-21T12:11:13.253Z,11.43
2022-09-21T12:14:23.534Z,12.70
2022-09-21T12:17:42.131Z,2.30
2022-09-21T12:20:50.457Z,2.83
2022-09-21T12:23:55.978Z,0.87
2022-09-21T12:27:11.218Z,0.90
2022-09-21T12:30:16.991Z,1.40
2022-09-21T12:33:26.502Z,2.43
2022-09-21T12:36:37.025Z,2.83
2022-09-21T12:39:48.376Z,8.20
2022-09-21T12:43:02.019Z,3.07
2022-09-21T12:46:09.173Z,0.90
2022-09-21T12:49:16.726Z,4.50
2022-09-21T12:52:23.804Z,2.30
2022-09-21T12:55:37.418Z,1.50
2022-09-21T12:58:51.986Z,1.40
2022-09-21T13:02:12.221Z,4.80
2022-09-21T13:05:23.142Z,1.70
2022-09-21T13:08:29.712Z,1.90
2022-09-21T13:11:33.940Z,1.27
2022-09-21T13:14:44.453Z,3.30
2022-09-21T13:17:47.204Z,1.20
2022-09-21T13:20:52.170Z,1.60
2022-09-21T13:23:58.254Z,0.90
2022-09-21T13:27:05.254Z,1.13
2022-09-21T13:30:32.526Z,1.70
2022-09-21T13:33:42.055Z,1.70
2022-09-21T13:36:44.740Z,1.57
2022-09-21T13:39:52.198Z,1.10
2022-09-21T13:42:54.844Z,1.93
2022-09-21T13:45:59.453Z,2.60
2022-09-21T13:49:07.043Z,2.70
2022-09-21T13:52:30.767Z,3.40
2022-09-21T13:55:35.978Z,0.57
2022-09-21T13:58:45.904Z,1.67
2022-09-21T14:01:51.023Z,2.93
2022-09-21T14:04:55.632Z,1.10
2022-09-21T14:08:02.348Z,5.90
2022-09-21T14:11:09.650Z,7.80
2022-09-21T14:14:22.718Z,2.83
2022-09-21T14:17:38.099Z,5.47
2022-09-21T14:20:42.374Z,1.17
2022-09-21T14:24:24.808Z,0.70
2022-09-21T14:27:31.581Z,5.00
2022-09-21T14:30:36.862Z,1.47
2022-09-21T14:33:47.291Z,1.10
2022-09-21T14:36:53.246Z,2.03
2022-09-21T14:39:57.489Z,1.23
2022-09-21T14:43:03.580Z,2.67
2022-09-21T14:46:32.709Z,4.50
2022-09-21T14:49:48.253Z,3.07
2022-09-21T14:53:08.677Z,1.70
2022-09-21T14:56:24.112Z,0.90
2022-09-21T14:59:40.348Z,1.53
2022-09-21T15:02:45.558Z,0.47
2022-09-21T15:05:56.517Z,3.43
2022-09-21T15:09:38.709Z,1.50
2022-09-21T15:12:55.082Z,0.70
2022-09-21T15:16:12.795Z,0.80
2022-09-21T15:19:22.758Z,0.80
2022-09-21T15:22:27.583Z,0.80
2022-09-21T15:25:34.810Z,2.37
2022-09-21T15:29:05.095Z,1.33
2022-09-21T15:32:03.990Z,1.97
2022-09-21T15:35:22.577Z,1.60
2022-09-21T15:38:30.890Z,0.70
2022-09-21T15:41:43.269Z,1.03
2022-09-21T15:44:48.702Z,1.20
2022-09-21T15:47:52.110Z,1.47
2022-09-21T15:50:58.866Z,0.87
2022-09-21T15:54:09.689Z,0.83
2022-09-21T15:57:29.363Z,1.93
2022-09-21T16:00:35.514Z,1.93
2022-09-21T16:03:39.963Z,0.80
2022-09-21T16:06:46.777Z,2.70
2022-09-21T16:09:51.695Z,1.47
2022-09-21T16:13:02.079Z,1.83
2022-09-21T16:16:05.861Z,1.97
2022-09-21T16:19:09.836Z,1.47
2022-09-21T16:22:13.242Z,3.53
2022-09-21T16:25:32.575Z,3.90
2022-09-21T16:28:38.087Z,1.77
2022-09-21T16:31:41.207Z,1.97
2022-09-21T16:34:45.791Z,1.30
2022-09-21T16:37:49.229Z,3.10
2022-09-21T16:40:54.399Z,1.97
2022-09-21T16:43:57.276Z,2.80
2022-09-21T16:47:02.062Z,3.33
2022-09-21T16:50:12.735Z,2.27
2022-09-21T16:53:15.448Z,2.17
2022-09-21T16:56:19.970Z,1.63
2022-09-21T16:59:23.242Z,2.50
2022-09-21T17:02:25.969Z,7.23
2022-09-21T17:05:29.000Z,2.43
2022-09-21T17:08:32.698Z,1.97
2022-09-21T17:11:36.813Z,3.87
2022-09-21T17:14:43.054Z,3.80
2022-09-21T17:17:49.365Z,4.00
2022-09-21T17:20:52.431Z,2.43
2022-09-21T17:23:55.062Z,4.63
2022-09-21T17:26:59.164Z,6.00
2022-09-21T17:30:03.414Z,2.13
2022-09-21T17:33:06.522Z,2.57
2022-09-21T17:36:13.919Z,2.00
2022-09-21T17:39:16.615Z,2.77
2022-09-21T17:42:25.254Z,5.30
2022-09-21T17:45:38.950Z,4.10
2022-09-21T17:48:42.935Z,6.77
2022-09-21T17:52:03.489Z,4.33
2022-09-21T17:55:08.644Z,1.50
2022-09-21T17:58:39.862Z,3.50
2022-09-21T18:01:42.913Z,5.70
2022-09-21T18:04:47.255Z,3.93
2022-09-21T18:07:51.740Z,3.80
2022-09-21T18:11:06.888Z,3.63
2022-09-21T18:14:21.760Z,5.20
2022-09-21T18:17:40.307Z,4.67
2022-09-21T18:20:53.915Z,4.03
2022-09-21T18:24:19.874Z,5.13
2022-09-21T18:27:24.403Z,5.00
2022-09-21T18:30:29.159Z,8.57
2022-09-21T18:33:45.362Z,15.00
2022-09-21T18:36:57.564Z,16.50
2022-09-21T18:40:11.231Z,7.97
2022-09-21T18:43:27.558Z,8.77
2022-09-21T18:46:40.314Z,3.90
2022-09-21T18:49:54.558Z,4.97
2022-09-21T18:53:03.737Z,6.53
2022-09-21T18:56:08.346Z,8.00
2022-09-21T18:59:13.014Z,8.07
2022-09-21T19:02:20.728Z,5.70
2022-09-21T19:05:24.322Z,4.47
2022-09-21T19:08:37.588Z,4.63
2022-09-21T19:11:46.679Z,4.07
2022-09-21T19:14:58.952Z,2.60
2022-09-21T19:18:15.852Z,3.30
2022-09-21T19:21:31.700Z,6.00
2022-09-21T19:24:46.375Z,9.30
2022-09-21T19:27:55.734Z,9.53
2022-09-21T19:31:04.401Z,12.93
2022-09-21T19:34:15.682Z,3.40
2022-09-21T19:37:18.614Z,21.80
2022-09-21T19:40:23.638Z,21.93
2022-09-21T19:43:31.739Z,16.23
2022-09-21T19:46:40.624Z,10.07
2022-09-21T19:49:49.756Z,8.53
2022-09-21T19:53:13.337Z,5.90
2022-09-21T19:56:35.420Z,16.43
2022-09-21T19:59:44.754Z,26.67
2022-09-21T20:03:02.579Z,6.97
2022-09-21T20:06:15.282Z,5.60
2022-09-21T20:09:25.025Z,4.20
2022-09-21T20:12:36.102Z,3.83
2022-09-21T20:15:44.977Z,4.37
2022-09-21T20:18:55.098Z,4.17
2022-09-21T20:22:04.588Z,5.10
2022-09-21T20:25:16.530Z,20.23
2022-09-21T20:28:20.576Z,13.07
2022-09-21T20:31:25.809Z,15.77
2022-09-21T20:34:28.844Z,20.93
2022-09-21T20:37:32.888Z,30.30
2022-09-21T20:40:35.903Z,9.83
2022-09-21T20:43:38.690Z,29.07
2022-09-21T20:46:41.332Z,22.87
2022-09-21T20:49:44.601Z,19.30
2022-09-21T20:52:49.118Z,8.00
2022-09-21T20:55:56.734Z,6.83
2022-09-21T20:58:59.714Z,15.37
2022-09-21T21:02:02.467Z,7.47
2022-09-21T21:05:05.812Z,7.07
2022-09-21T21:08:10.693Z,8.07
2022-09-21T21:11:14.283Z,5.93
2022-09-21T21:14:17.406Z,5.33
2022-09-21T21:17:20.038Z,10.83
2022-09-21T21:20:23.760Z,8.87
2022-09-21T21:23:28.263Z,6.27
2022-09-21T21:26:50.643Z,5.57
2022-09-21T21:29:55.739Z,7.70
2022-09-21T21:32:58.506Z,8.03
2022-09-21T21:36:06.439Z,9.33
2022-09-21T21:39:11.231Z,5.70
2022-09-21T21:42:13.922Z,8.60
2022-09-21T21:45:17.010Z,7.37
2022-09-21T21:48:20.159Z,5.70
2022-09-21T21:51:23.265Z,6.63
2022-09-21T21:54:27.400Z,8.33
2022-09-21T21:57:30.463Z,10.10
2022-09-21T22:00:33.115Z,8.83
2022-09-21T22:03:36.546Z,7.33
2022-09-21T22:06:40.587Z,5.87
2022-09-21T22:09:44.960Z,5.33
2022-09-21T22:12:47.577Z,8.17
2022-09-21T22:15:50.919Z,7.30
2022-09-21T22:18:54.230Z,9.93
2022-09-21T22:21:57.727Z,10.17
2022-09-21T22:25:02.070Z,11.17
2022-09-21T22:28:05.499Z,10.17
2022-09-21T22:31:11.309Z,10.60
2022-09-21T22:34:14.956Z,10.40
2022-09-21T22:37:17.658Z,6.23
2022-09-21T22:40:22.950Z,14.67
2022-09-21T22:43:26.272Z,5.97
2022-09-21T22:46:30.952Z,4.80
2022-09-21T22:49:34.033Z,7.23
2022-09-21T22:52:36.668Z,5.97
2022-09-21T22:55:41.052Z,7.50
2022-09-21T22:58:47.370Z,6.00
2022-09-21T23:01:50.159Z,5.10
2022-09-21T23:04:53.287Z,4.87
2022-09-21T23:07:57.043Z,6.30
2022-09-21T23:11:09.060Z,7.73
2022-09-21T23:14:13.247Z,4.27
2022-09-21T23:17:15.906Z,4.83
2022-09-21T23:20:19.609Z,6.50
2022-09-21T23:23:22.259Z,8.67
2022-09-21T23:26:27.791Z,7.10
2022-09-21T23:29:30.818Z,5.47
2022-09-21T23:32:33.443Z,5.70
2022-09-21T23:35:36.711Z,4.50
2022-09-21T23:38:39.620Z,10.57
2022-09-21T23:41:44.838Z,6.07
2022-09-21T23:44:47.489Z,4.70
2022-09-21T23:47:50.691Z,7.03
2022-09-21T23:50:53.855Z,5.17
2022-09-21T23:53:57.073Z,7.87
2022-09-21T23:57:01.542Z,6.00
